メインページ
METAR-TAF:

METAR-TAF

空港 :

カトマンズ, ネパール

トリブバン国際空港

緯度: 27-42N, 経度: 085-22E, 海抜: 1337m

現時点の気象観測

当レポートは16分前の12:50(UTC)に作成
西の風 3kt、南西から北/北西の間で変化する
気温 15°C
湿度 72%
気圧 1018 hPa
視程: 7000m
高度2000ftの雲はほとんどない

METAR: VNKT 241250Z 27003KT 220V340 7000 FEW020 15/10 Q1018 NOSIG

時間: 18:51 (13:06 UTC)

予報

当レポートは2時間6分前の11:00(UTC)に作成
予報は24日の 12時(UTC)から 25日の 12時(UTC)まで有効
西/南西の風 5kt
視程: 8000m
高度2000ftの雲はほとんどない
24日の 14時(UTC)から 24日の 15時(UTC)まで徐々に
変向風 2kt
視程: 6000m
高度1500ftの雲はほとんどない
25日の 00時(UTC)から 25日の 02時(UTC)まで徐々に
の風 kt
視程: 4000m
高度1000ftの雲はほとんどない
確率 40%
25日の 01時(UTC)から 25日の 03時(UTC)まで
視程: 2000m
25日の 04時(UTC)から 25日の 05時(UTC)まで徐々に
南東の風 5kt
視程: 5000m
高度1500ftの雲はほとんどない
煙霧
25日の 07時(UTC)から 25日の 08時(UTC)まで徐々に
西/南西の風 8kt
視程: 8000m
高度2000ftの雲はほとんどない

TAF: VNKT 241100Z 2412/2512 24005KT 8000 FEW020 BECMG 2414/2415 VRB02KT 6000 FEW015 BECMG 2500/2502 00000KT 4000 BR FEW010 PROB40 2501/2503 2000 BR BECMG 2504/2505 13005KT 5000 HZ FEW015 BECMG 2507/2508 24008KT 8000 FEW020

4,000以上の空港の気象観測と天気予報(METAR報とTAF報)

利用可能な観測所は地図上に黄色い丸と赤い丸で示す。

丸の上にカーソルを重ねると観測所名を参照できる。

次にクリックすると気象観測と天気予報を参照できる。

マップの切り替え:黒色「×」印の緑ボタンをクリックして拡大、「-」印の緑ボタンをクリックして縮小、緑色の三角印をクリックして隣りの地図に切り替え


METAR-TAF: